Roseville, Illinois
Current Conditions -  °F | °C
As of 10:15 AM on Thursday 23 Oct 2014 (Local Time) from KMQB Reporting Station
Scattered Clouds Scattered Clouds  
Wind Chill: 51°   Ceiling: Unl
Heat Index: 51°   Visibility: 10mi
Dew Point: 44°   Wind: 12mph
Humidity: 78%   Direction: 160°SSE
Pressure: 30.18"   Gusts: NA
Location:  40.73°N, 90.66°W
Report Text: KMQB 231515Z AUTO 16010KT 10SM SCT047 10/07 A3018 RMK AO2 T01030067
Loading
Personal Weather Stations






























Interactive Weather Map
Tropical Storm Tracking
New forecast layout! Learn more

10-Day Weather Forecast

Advertisements
Track Severe Weather on mobile